North Wichita, Kansas
Current Conditions -  °F | °C
As of 8:54 PM on Friday 21 Nov 2014 (Local Time) from KAAO Reporting Station
Moderate Fog Moderate Fog  
Wind Chill: 43°   Ceiling: 200
Heat Index: 46°   Visibility: 0.5mi
Dew Point: 46°   Wind: 6mph
Humidity: 100%   Direction: 230°SW
Pressure: 30.03"   Gusts: NA
Location:  37.7735°N, 97.3663°W
Report Text: KAAO 220254Z AUTO 23005KT 1/2SM FG VV002 08/08 A3003 RMK AO2 SLP178 T00780078 51002
Loading
Personal Weather Stations






























Interactive Weather Map New forecast layout! Learn more

10-Day Weather Forecast

Advertisements
Track Severe Weather on mobile